Terminal Aerodrome Forecast
Issued by NWS

Home | Current Version | Previous Version | Text Only | Print | Product List | Glossary On
Versions: 1 2 3 4 5 6 7 8 9 10 11 12 13 14 15 16 17 18 19 20 21 22
000
FTUS43 KLSX 312055 AAB
TAFCPS
TAF AMD
KCPS 312055Z 3121/0118 18006KT P6SM VCTS SCT050CB SCT250
      TEMPO 3121/3122 3SM -TSRA BKN040CB
     FM010000 16004KT P6SM SCT250
     FM011400 21007KT P6SM SCT050=

USA.gov is the U.S. government's official web portal to all federal, state and local government web resources and services.